Gallatin, New York
Current Conditions -  °F | °C
As of 2:53 AM on Saturday 20 Dec 2014 (Local Time) from KPOU Reporting Station
Overcast Overcast  
Wind Chill: 22°   Ceiling: 3000
Heat Index: 30°   Visibility: 10mi
Dew Point: 20°   Wind: 9mph
Humidity: 66%   Direction: 30°NNE
Pressure: 30.2"   Gusts: NA
Location:  41.9992°N, 73.6682°W
Report Text: KPOU 200753Z AUTO 03008KT 10SM OVC030 M01/M07 A3020 RMK AO2 SLP225 T10111067 TSNO
Loading
Personal Weather Stations






























Interactive Weather Map New forecast layout! Learn more

10-Day Weather Forecast

Advertisements
Track Severe Weather on mobile